createdAt,value
2018-07-24T00:00:12.579Z,82.21
2018-07-24T00:02:41.173Z,82.59
2018-07-24T00:05:09.868Z,82.95
2018-07-24T00:07:38.489Z,82.36
2018-07-24T00:10:07.967Z,82.79
2018-07-24T00:12:36.656Z,82.29
2018-07-24T00:15:06.232Z,82.63
2018-07-24T00:17:34.918Z,82.38
2018-07-24T00:20:03.698Z,82.69
2018-07-24T00:22:32.360Z,82.31
2018-07-24T00:25:01.756Z,82.66
2018-07-24T00:27:30.404Z,82.82
2018-07-24T00:29:59.105Z,82.47
2018-07-24T00:32:27.941Z,82.79
2018-07-24T00:34:56.711Z,82.56
2018-07-24T00:37:25.490Z,82.62
2018-07-24T00:39:54.172Z,82.67
2018-07-24T00:42:22.953Z,82.36
2018-07-24T00:44:51.668Z,82.68
2018-07-24T00:47:20.404Z,82.39
2018-07-24T00:49:49.109Z,82.49
2018-07-24T00:52:17.782Z,83.38
2018-07-24T00:54:46.549Z,82.90
2018-07-24T00:57:15.855Z,83.14
2018-07-24T00:59:44.540Z,83.49
2018-07-24T01:02:13.328Z,82.96
2018-07-24T01:04:42.110Z,83.07
2018-07-24T01:07:10.764Z,82.70
2018-07-24T01:09:39.448Z,83.19
2018-07-24T01:12:08.228Z,83.11
2018-07-24T01:14:36.966Z,82.68
2018-07-24T01:17:05.786Z,82.77
2018-07-24T01:19:34.455Z,82.74
2018-07-24T01:22:03.186Z,82.95
2018-07-24T01:24:31.873Z,83.13
2018-07-24T01:27:00.699Z,83.20
2018-07-24T01:29:29.420Z,83.19
2018-07-24T01:31:58.119Z,82.77
2018-07-24T01:34:26.906Z,83.09
2018-07-24T01:36:55.570Z,83.19
2018-07-24T01:39:24.264Z,83.13
2018-07-24T01:41:52.947Z,82.84
2018-07-24T01:44:21.639Z,82.91
2018-07-24T01:46:50.322Z,82.71
2018-07-24T01:49:19.054Z,82.76
2018-07-24T01:51:47.673Z,83.01
2018-07-24T01:54:16.396Z,82.69
2018-07-24T01:56:45.080Z,82.85
2018-07-24T01:59:13.713Z,82.95
2018-07-24T02:01:43.738Z,83.33
2018-07-24T02:04:12.783Z,83.46
2018-07-24T02:06:41.444Z,82.85
2018-07-24T02:09:11.026Z,82.79
2018-07-24T02:11:40.028Z,83.00
2018-07-24T02:14:09.161Z,83.28
2018-07-24T02:16:38.094Z,83.48
2018-07-24T02:19:06.849Z,82.91
2018-07-24T02:21:35.577Z,83.18
2018-07-24T02:24:04.312Z,82.95
2018-07-24T02:26:33.098Z,82.95
2018-07-24T02:29:02.640Z,82.77
2018-07-24T02:31:31.255Z,82.66
2018-07-24T02:33:59.946Z,82.62
2018-07-24T02:36:28.708Z,83.05
2018-07-24T02:38:57.417Z,83.07
2018-07-24T02:41:26.162Z,83.68
2018-07-24T02:43:54.865Z,84.31
2018-07-24T02:46:23.535Z,83.91
2018-07-24T02:48:52.330Z,84.35
2018-07-24T02:51:20.984Z,83.81
2018-07-24T02:53:49.716Z,84.06
2018-07-24T02:56:18.329Z,83.21
2018-07-24T02:58:47.032Z,83.05
2018-07-24T03:01:15.761Z,82.44
2018-07-24T03:03:44.483Z,82.47
2018-07-24T03:06:13.343Z,82.70
2018-07-24T03:08:42.014Z,83.29
2018-07-24T03:11:10.828Z,82.53
2018-07-24T03:13:39.511Z,82.88
2018-07-24T03:16:08.228Z,82.96
2018-07-24T03:18:36.969Z,82.45
2018-07-24T03:21:05.610Z,82.78
2018-07-24T03:23:34.232Z,82.29
2018-07-24T03:26:02.984Z,81.57
2018-07-24T03:28:31.690Z,81.48
2018-07-24T03:31:00.355Z,82.01
2018-07-24T03:33:29.132Z,81.98
2018-07-24T03:35:58.133Z,81.26
2018-07-24T03:38:26.822Z,81.22
2018-07-24T03:40:55.510Z,81.42
2018-07-24T03:43:24.141Z,81.65
2018-07-24T03:45:52.869Z,81.26
2018-07-24T03:48:21.555Z,81.07
2018-07-24T03:50:50.242Z,81.03
2018-07-24T03:53:18.866Z,80.63
2018-07-24T03:55:47.537Z,80.71
2018-07-24T03:58:16.185Z,81.05
2018-07-24T04:00:44.862Z,80.53
2018-07-24T04:03:13.494Z,80.99
2018-07-24T04:05:42.238Z,80.84
2018-07-24T04:08:10.965Z,80.39
2018-07-24T04:10:39.590Z,79.86
2018-07-24T04:13:08.333Z,79.96
2018-07-24T04:15:37.001Z,79.68
2018-07-24T04:18:05.740Z,79.84
2018-07-24T04:20:34.424Z,79.73
2018-07-24T04:23:03.240Z,79.15
2018-07-24T04:25:31.931Z,79.02
2018-07-24T04:28:00.815Z,78.81
2018-07-24T04:30:29.438Z,78.86
2018-07-24T04:32:58.090Z,78.71
2018-07-24T04:35:26.871Z,78.01
2018-07-24T04:37:55.703Z,77.92
2018-07-24T04:40:24.512Z,77.00
2018-07-24T04:42:53.199Z,77.95
2018-07-24T04:45:21.926Z,77.80
2018-07-24T04:47:50.612Z,77.14
2018-07-24T04:50:19.342Z,76.41
2018-07-24T04:52:48.062Z,76.16
2018-07-24T04:55:16.717Z,75.74
2018-07-24T04:57:45.440Z,74.94
2018-07-24T05:00:14.134Z,72.80
2018-07-24T05:02:42.896Z,70.21
2018-07-24T05:05:11.538Z,68.37
2018-07-24T05:07:40.240Z,68.21
2018-07-24T05:10:08.897Z,70.10
2018-07-24T05:12:37.650Z,70.11
2018-07-24T05:15:06.528Z,70.10
2018-07-24T05:17:35.330Z,70.61
2018-07-24T05:20:04.175Z,70.01
2018-07-24T05:22:32.795Z,70.41
2018-07-24T05:25:01.473Z,70.65
2018-07-24T05:27:30.102Z,70.78
2018-07-24T05:29:58.854Z,71.49
2018-07-24T05:32:27.541Z,70.86
2018-07-24T05:34:56.186Z,70.45
2018-07-24T05:37:24.910Z,70.60
2018-07-24T05:39:53.699Z,71.15
2018-07-24T05:42:22.431Z,71.21
2018-07-24T05:44:51.093Z,69.61
2018-07-24T05:47:19.722Z,70.18
2018-07-24T05:49:48.457Z,69.54
2018-07-24T05:52:17.140Z,69.47
2018-07-24T05:54:45.807Z,68.89
2018-07-24T05:57:14.439Z,68.97
2018-07-24T05:59:43.241Z,67.51
2018-07-24T06:02:12.156Z,66.61
2018-07-24T06:04:41.137Z,65.89
2018-07-24T06:07:09.854Z,66.15
2018-07-24T06:09:38.543Z,64.03
2018-07-24T06:12:07.448Z,62.31
2018-07-24T06:14:36.026Z,63.88
2018-07-24T06:17:04.849Z,62.16
2018-07-24T06:19:33.588Z,62.85
2018-07-24T06:22:02.555Z,62.29
2018-07-24T06:24:31.185Z,59.30
2018-07-24T06:26:59.951Z,61.40
2018-07-24T06:29:28.601Z,62.43
2018-07-24T06:31:57.374Z,61.34
2018-07-24T06:34:26.064Z,61.32
2018-07-24T06:36:54.756Z,60.40
2018-07-24T06:39:23.452Z,60.64
2018-07-24T06:41:52.129Z,53.29
2018-07-24T06:44:20.948Z,53.00
2018-07-24T06:46:49.702Z,53.52
2018-07-24T06:49:18.517Z,54.69
2018-07-24T06:51:47.299Z,55.14
2018-07-24T06:54:15.893Z,54.37
2018-07-24T06:56:44.617Z,52.30
2018-07-24T06:59:13.316Z,49.12
2018-07-24T07:01:41.923Z,50.08
2018-07-24T07:04:10.523Z,49.08
2018-07-24T07:06:39.598Z,50.12
2018-07-24T07:09:09.064Z,50.62
2018-07-24T07:11:37.792Z,51.59
2018-07-24T07:14:06.855Z,49.87
2018-07-24T07:16:35.831Z,52.88
2018-07-24T07:19:04.628Z,50.58
2018-07-24T07:21:33.317Z,51.01
2018-07-24T07:24:02.189Z,52.57
2018-07-24T07:26:30.867Z,52.76
2018-07-24T07:28:59.576Z,50.94
2018-07-24T07:31:28.227Z,48.77
2018-07-24T07:33:56.907Z,49.91
2018-07-24T07:36:25.607Z,49.15
2018-07-24T07:38:54.268Z,48.44
2018-07-24T07:41:22.874Z,49.92
2018-07-24T07:43:51.583Z,48.60
2018-07-24T07:46:20.388Z,47.19
2018-07-24T07:48:49.069Z,47.99
2018-07-24T07:51:17.687Z,47.70
2018-07-24T07:53:46.489Z,46.04
2018-07-24T07:56:15.121Z,46.54
2018-07-24T07:58:43.814Z,46.53
2018-07-24T08:01:12.559Z,46.64
2018-07-24T08:03:41.216Z,47.88
2018-07-24T08:06:09.887Z,46.83
2018-07-24T08:08:38.597Z,47.39
2018-07-24T08:11:07.474Z,46.26
2018-07-24T08:13:36.185Z,46.43
2018-07-24T08:16:05.255Z,45.33
2018-07-24T08:18:33.878Z,45.54
2018-07-24T08:21:02.586Z,43.81
2018-07-24T08:23:31.475Z,45.07
2018-07-24T08:26:00.234Z,42.81
2018-07-24T08:28:28.951Z,43.87
2018-07-24T08:30:57.895Z,44.76
2018-07-24T08:33:26.607Z,44.38
2018-07-24T08:35:55.305Z,42.38
2018-07-24T08:38:23.932Z,43.06
2018-07-24T08:40:52.719Z,42.56
2018-07-24T08:43:21.617Z,42.62
2018-07-24T08:45:50.296Z,41.23
2018-07-24T08:48:19.000Z,39.93
2018-07-24T08:50:47.741Z,41.56
2018-07-24T08:53:16.609Z,41.49
2018-07-24T08:55:45.411Z,41.31
2018-07-24T08:58:13.937Z,41.93
2018-07-24T09:00:42.580Z,40.83
2018-07-24T09:03:11.306Z,40.79
2018-07-24T09:05:40.011Z,42.51
2018-07-24T09:08:08.667Z,42.55
2018-07-24T09:10:37.640Z,41.29
2018-07-24T09:13:06.331Z,39.38
2018-07-24T09:15:35.019Z,40.94
2018-07-24T09:18:04.021Z,39.55
2018-07-24T09:20:32.636Z,39.56
2018-07-24T09:23:01.317Z,39.66
2018-07-24T09:25:29.940Z,40.30
2018-07-24T09:27:58.731Z,40.40
2018-07-24T09:30:27.434Z,39.22
2018-07-24T09:32:56.173Z,39.45
2018-07-24T09:35:24.971Z,39.84
2018-07-24T09:37:53.760Z,39.51
2018-07-24T09:40:22.535Z,40.03
2018-07-24T09:42:51.272Z,38.56
2018-07-24T09:45:19.925Z,37.91
2018-07-24T09:47:48.576Z,37.38
2018-07-24T09:50:17.259Z,37.71
2018-07-24T09:52:45.994Z,37.95
2018-07-24T09:55:14.718Z,37.00
2018-07-24T09:57:43.588Z,35.82
2018-07-24T10:00:12.271Z,35.62
2018-07-24T10:02:41.099Z,37.89
2018-07-24T10:05:09.798Z,35.77
2018-07-24T10:07:38.487Z,36.51
2018-07-24T10:10:07.827Z,34.93
2018-07-24T10:12:36.563Z,34.56
2018-07-24T10:15:05.280Z,34.98
2018-07-24T10:17:33.908Z,34.57
2018-07-24T10:20:02.801Z,34.19
2018-07-24T10:22:31.447Z,34.68
2018-07-24T10:25:00.095Z,34.95
2018-07-24T10:27:28.840Z,34.35
2018-07-24T10:29:57.614Z,33.38
2018-07-24T10:32:26.310Z,34.11
2018-07-24T10:34:55.012Z,34.19
2018-07-24T10:37:23.766Z,32.47
2018-07-24T10:39:52.440Z,32.99
2018-07-24T10:42:21.107Z,33.65
2018-07-24T10:44:50.050Z,33.51
2018-07-24T10:47:18.750Z,34.12
2018-07-24T10:49:47.519Z,34.24
2018-07-24T10:52:16.206Z,33.72
2018-07-24T10:54:45.405Z,33.43
2018-07-24T10:57:14.116Z,33.04
2018-07-24T10:59:42.746Z,33.45
2018-07-24T11:02:11.443Z,33.48
2018-07-24T11:04:40.234Z,32.15
2018-07-24T11:07:08.924Z,31.52
2018-07-24T11:09:37.618Z,32.66
2018-07-24T11:12:06.934Z,31.36
2018-07-24T11:14:35.723Z,31.49
2018-07-24T11:17:04.411Z,32.07
2018-07-24T11:19:33.069Z,32.07
2018-07-24T11:22:01.860Z,31.60
2018-07-24T11:24:30.585Z,32.15
2018-07-24T11:26:59.232Z,32.43
2018-07-24T11:29:27.807Z,29.26
2018-07-24T11:31:56.456Z,30.13
2018-07-24T11:34:25.098Z,29.65
2018-07-24T11:36:53.770Z,30.70
2018-07-24T11:39:22.485Z,28.07
2018-07-24T11:41:51.178Z,29.75
2018-07-24T11:44:19.896Z,29.43
2018-07-24T11:46:48.787Z,30.36
2018-07-24T11:49:17.618Z,30.61
2018-07-24T11:51:46.453Z,30.20
2018-07-24T11:54:15.222Z,31.04
2018-07-24T11:56:43.880Z,28.42
2018-07-24T11:59:12.556Z,28.34
2018-07-24T12:01:41.298Z,27.67
2018-07-24T12:04:09.957Z,29.18
2018-07-24T12:06:39.644Z,28.79
2018-07-24T12:09:10.866Z,28.32
2018-07-24T12:11:39.800Z,29.54
2018-07-24T12:14:08.716Z,29.72
2018-07-24T12:16:37.765Z,27.98
2018-07-24T12:19:06.625Z,28.80
2018-07-24T12:21:35.336Z,29.40
2018-07-24T12:24:04.080Z,29.95
2018-07-24T12:26:32.722Z,28.53
2018-07-24T12:29:01.368Z,29.19
2018-07-24T12:31:30.207Z,28.78
2018-07-24T12:33:58.928Z,29.27
2018-07-24T12:36:27.723Z,28.65
2018-07-24T12:38:56.331Z,29.57
2018-07-24T12:41:25.017Z,27.97
2018-07-24T12:43:53.725Z,27.29
2018-07-24T12:46:22.479Z,26.24
2018-07-24T12:48:51.237Z,27.02
2018-07-24T12:51:19.851Z,26.05
2018-07-24T12:53:48.584Z,24.65
2018-07-24T12:56:17.365Z,25.18
2018-07-24T12:58:46.094Z,24.65
2018-07-24T13:01:14.740Z,22.70
2018-07-24T13:03:43.400Z,22.56
2018-07-24T13:06:12.061Z,21.64
2018-07-24T13:08:40.833Z,22.50
2018-07-24T13:11:09.539Z,23.52
2018-07-24T13:13:38.365Z,22.91
2018-07-24T13:16:07.456Z,23.61
2018-07-24T13:18:36.347Z,25.28
2018-07-24T13:21:05.094Z,26.29
2018-07-24T13:23:33.915Z,26.19
2018-07-24T13:26:02.586Z,24.35
2018-07-24T13:28:31.291Z,25.57
2018-07-24T13:31:00.213Z,24.35
2018-07-24T13:33:29.172Z,22.23
2018-07-24T13:35:57.803Z,21.20
2018-07-24T13:38:26.423Z,19.96
2018-07-24T13:40:55.051Z,20.65
2018-07-24T13:43:23.747Z,20.61
2018-07-24T13:45:52.524Z,19.94
2018-07-24T13:48:21.142Z,20.35
2018-07-24T13:50:49.881Z,20.81
2018-07-24T13:53:18.577Z,21.33
2018-07-24T13:55:47.312Z,23.51
2018-07-24T13:58:15.916Z,24.79
2018-07-24T14:00:44.617Z,25.32
2018-07-24T14:03:13.318Z,26.28
2018-07-24T14:05:42.062Z,28.63
2018-07-24T14:08:10.882Z,27.91
2018-07-24T14:10:39.679Z,28.65
2018-07-24T14:13:08.451Z,29.55
2018-07-24T14:15:37.215Z,29.52
2018-07-24T14:18:06.162Z,29.59
2018-07-24T14:20:34.908Z,30.44
2018-07-24T14:23:04.467Z,31.37
2018-07-24T14:25:33.230Z,31.00
2018-07-24T14:28:01.945Z,31.38
2018-07-24T14:30:30.614Z,32.71
2018-07-24T14:33:00.343Z,31.70
2018-07-24T14:35:29.118Z,32.17
2018-07-24T14:37:57.801Z,31.74
2018-07-24T14:40:26.496Z,31.22
2018-07-24T14:42:55.490Z,30.62
2018-07-24T14:45:24.197Z,28.61
2018-07-24T14:47:52.938Z,26.42
2018-07-24T14:50:21.685Z,27.80
2018-07-24T14:52:50.473Z,26.95
2018-07-24T14:55:19.165Z,26.35
2018-07-24T14:57:47.840Z,27.36
2018-07-24T15:00:16.521Z,25.21
2018-07-24T15:02:45.164Z,24.22
2018-07-24T15:05:13.800Z,24.97
2018-07-24T15:07:42.651Z,24.71
2018-07-24T15:10:11.569Z,23.92
2018-07-24T15:12:40.252Z,23.58
2018-07-24T15:15:08.896Z,21.50
2018-07-24T15:17:37.674Z,22.30
2018-07-24T15:20:06.594Z,22.97
2018-07-24T15:22:35.410Z,22.58
2018-07-24T15:25:04.150Z,24.80
2018-07-24T15:27:32.912Z,24.14
2018-07-24T15:30:01.631Z,24.66
2018-07-24T15:32:30.256Z,26.53
2018-07-24T15:34:58.943Z,27.44
2018-07-24T15:37:27.612Z,29.43
2018-07-24T15:39:56.387Z,30.10
2018-07-24T15:42:25.186Z,31.75
2018-07-24T15:44:53.976Z,32.19
2018-07-24T15:47:22.710Z,33.79
2018-07-24T15:49:51.389Z,33.76
2018-07-24T15:52:20.103Z,34.61
2018-07-24T15:54:49.121Z,34.08
2018-07-24T15:57:17.851Z,34.44
2018-07-24T15:59:46.941Z,34.96
2018-07-24T16:02:15.776Z,35.89
2018-07-24T16:04:44.497Z,36.29
2018-07-24T16:07:13.248Z,37.36
2018-07-24T16:09:42.064Z,36.59
2018-07-24T16:12:11.019Z,36.40
2018-07-24T16:14:40.053Z,36.09
2018-07-24T16:17:09.023Z,35.16
2018-07-24T16:19:37.772Z,35.69
2018-07-24T16:22:06.756Z,35.65
2018-07-24T16:24:35.420Z,35.69
2018-07-24T16:27:04.200Z,35.72
2018-07-24T16:29:32.951Z,35.85
2018-07-24T16:32:01.675Z,35.67
2018-07-24T16:34:30.449Z,35.26
2018-07-24T16:36:59.119Z,36.23
2018-07-24T16:39:27.826Z,35.47
2018-07-24T16:41:56.568Z,35.06
2018-07-24T16:44:25.254Z,33.62
2018-07-24T16:46:53.944Z,34.21
2018-07-24T16:49:22.603Z,34.39
2018-07-24T16:51:51.267Z,34.96
2018-07-24T16:54:20.024Z,36.07
2018-07-24T16:56:48.807Z,35.79
2018-07-24T16:59:17.450Z,36.66
2018-07-24T17:01:46.156Z,36.29
2018-07-24T17:04:14.933Z,36.52
2018-07-24T17:06:43.605Z,37.01
2018-07-24T17:09:12.860Z,37.31
2018-07-24T17:11:41.858Z,37.41
2018-07-24T17:14:11.016Z,37.19
2018-07-24T17:16:39.987Z,36.98
2018-07-24T17:19:08.613Z,37.07
2018-07-24T17:21:37.522Z,37.72
2018-07-24T17:24:06.515Z,38.05
2018-07-24T17:26:35.299Z,38.30
2018-07-24T17:29:04.110Z,38.14
2018-07-24T17:31:32.867Z,39.09
2018-07-24T17:34:01.463Z,39.02
2018-07-24T17:36:30.359Z,39.20
2018-07-24T17:38:59.200Z,39.11
2018-07-24T17:41:27.886Z,39.66
2018-07-24T17:43:56.703Z,40.14
2018-07-24T17:46:25.309Z,40.40
2018-07-24T17:48:54.124Z,40.46
2018-07-24T17:51:22.817Z,40.09
2018-07-24T17:53:51.486Z,40.83
2018-07-24T17:56:20.153Z,41.07
2018-07-24T17:58:48.889Z,41.19
2018-07-24T18:01:17.629Z,41.02
2018-07-24T18:03:46.353Z,41.69
2018-07-24T18:06:15.552Z,42.18
2018-07-24T18:08:44.315Z,42.03
2018-07-24T18:11:12.961Z,41.82
2018-07-24T18:13:41.585Z,42.20
2018-07-24T18:16:10.478Z,42.48
2018-07-24T18:18:39.256Z,43.00
2018-07-24T18:21:08.023Z,43.11
2018-07-24T18:23:36.752Z,43.76
2018-07-24T18:26:05.892Z,44.38
2018-07-24T18:28:34.593Z,44.77
2018-07-24T18:31:03.307Z,45.38
2018-07-24T18:33:32.233Z,45.09
2018-07-24T18:36:00.901Z,45.19
2018-07-24T18:38:29.538Z,45.73
2018-07-24T18:40:58.277Z,45.70
2018-07-24T18:43:33.304Z,45.93
2018-07-24T18:46:02.021Z,45.87
2018-07-24T18:48:30.713Z,46.30
2018-07-24T18:50:59.468Z,46.86
2018-07-24T18:53:28.110Z,46.39
2018-07-24T18:55:56.914Z,46.67
2018-07-24T18:58:25.690Z,47.06
2018-07-24T19:00:54.339Z,47.70
2018-07-24T19:03:23.016Z,47.71
2018-07-24T19:05:51.722Z,47.60
2018-07-24T19:08:20.652Z,48.29
2018-07-24T19:10:49.396Z,48.45
2018-07-24T19:13:18.034Z,48.84
2018-07-24T19:15:46.685Z,49.43
2018-07-24T19:18:15.365Z,48.64
2018-07-24T19:20:44.121Z,48.81
2018-07-24T19:23:12.784Z,49.35
2018-07-24T19:25:41.498Z,49.37
2018-07-24T19:28:10.260Z,49.23
2018-07-24T19:30:38.880Z,49.77
2018-07-24T19:33:07.558Z,49.42
2018-07-24T19:35:36.267Z,49.80
2018-07-24T19:38:04.969Z,49.68
2018-07-24T19:40:33.671Z,50.87
2018-07-24T19:43:02.314Z,50.50
2018-07-24T19:45:30.946Z,50.98
2018-07-24T19:47:59.593Z,50.79
2018-07-24T19:50:28.219Z,51.09
2018-07-24T19:52:56.919Z,50.78
2018-07-24T19:55:25.705Z,51.63
2018-07-24T19:57:54.466Z,51.19
2018-07-24T20:00:23.090Z,51.79
2018-07-24T20:02:51.958Z,51.22
2018-07-24T20:05:20.920Z,51.53
2018-07-24T20:07:49.646Z,51.62
2018-07-24T20:10:18.592Z,51.77
2018-07-24T20:12:47.381Z,51.52
2018-07-24T20:15:18.632Z,51.59
2018-07-24T20:17:47.572Z,51.93
2018-07-24T20:20:16.897Z,51.93
2018-07-24T20:22:46.009Z,52.22
2018-07-24T20:25:14.525Z,52.42
2018-07-24T20:27:43.300Z,52.75
2018-07-24T20:30:12.195Z,52.95
2018-07-24T20:32:40.825Z,53.18
2018-07-24T20:35:10.069Z,53.41
2018-07-24T20:37:38.894Z,54.10
2018-07-24T20:40:07.691Z,54.09
2018-07-24T20:42:36.659Z,54.12
2018-07-24T20:45:05.766Z,54.09
2018-07-24T20:47:34.453Z,55.40
2018-07-24T20:50:03.130Z,57.22
2018-07-24T20:52:32.005Z,57.25
2018-07-24T20:55:00.996Z,57.06
2018-07-24T20:57:29.691Z,57.62
2018-07-24T20:59:58.489Z,57.91
2018-07-24T21:02:27.220Z,58.76
2018-07-24T21:04:55.876Z,59.38
2018-07-24T21:07:24.561Z,58.98
2018-07-24T21:09:54.189Z,60.09
2018-07-24T21:12:22.845Z,60.63
2018-07-24T21:14:51.764Z,60.93
2018-07-24T21:17:20.431Z,60.93
2018-07-24T21:19:49.063Z,61.66
2018-07-24T21:22:17.849Z,61.33
2018-07-24T21:24:46.562Z,63.35
2018-07-24T21:27:15.219Z,64.50
2018-07-24T21:29:43.923Z,64.58
2018-07-24T21:32:13.004Z,65.26
2018-07-24T21:34:41.862Z,66.32
2018-07-24T21:37:10.544Z,65.83
2018-07-24T21:39:39.234Z,64.89
2018-07-24T21:42:07.937Z,65.42
2018-07-24T21:44:36.641Z,66.05
2018-07-24T21:47:05.391Z,65.14
2018-07-24T21:49:34.112Z,65.65
2018-07-24T21:52:02.717Z,65.71
2018-07-24T21:54:31.351Z,65.25
2018-07-24T21:57:00.200Z,65.87
2018-07-24T21:59:28.847Z,66.39
2018-07-24T22:01:57.542Z,65.99
2018-07-24T22:04:26.151Z,66.00
2018-07-24T22:06:54.825Z,66.36
2018-07-24T22:09:23.565Z,67.07
2018-07-24T22:11:52.223Z,68.52
2018-07-24T22:14:20.954Z,68.63
2018-07-24T22:16:49.751Z,68.14
2018-07-24T22:19:18.488Z,67.67
2018-07-24T22:21:47.203Z,69.82
2018-07-24T22:24:16.164Z,69.59
2018-07-24T22:26:44.888Z,70.52
2018-07-24T22:29:13.680Z,69.39
2018-07-24T22:31:42.382Z,71.17
2018-07-24T22:34:11.074Z,71.10
2018-07-24T22:36:39.708Z,71.75
2018-07-24T22:39:10.956Z,71.24
2018-07-24T22:41:39.751Z,71.38
2018-07-24T22:44:08.431Z,72.31
2018-07-24T22:46:37.125Z,70.91
2018-07-24T22:49:06.069Z,71.64
2018-07-24T22:51:34.735Z,72.37
2018-07-24T22:54:03.444Z,70.71
2018-07-24T22:56:32.185Z,71.25
2018-07-24T22:59:01.682Z,72.68
2018-07-24T23:01:30.345Z,73.13
2018-07-24T23:03:58.976Z,73.23
2018-07-24T23:06:27.849Z,73.75
2018-07-24T23:08:56.501Z,73.05
2018-07-24T23:11:25.215Z,74.70
2018-07-24T23:13:53.977Z,73.28
2018-07-24T23:16:22.608Z,73.82
2018-07-24T23:18:51.449Z,74.43
2018-07-24T23:21:20.208Z,73.79
2018-07-24T23:23:48.945Z,75.58
2018-07-24T23:26:17.727Z,75.25
2018-07-24T23:28:46.431Z,75.81
2018-07-24T23:31:15.081Z,76.09
2018-07-24T23:33:43.841Z,75.94
2018-07-24T23:36:12.672Z,76.23
2018-07-24T23:38:41.253Z,77.80
2018-07-24T23:41:09.913Z,76.35
2018-07-24T23:43:38.732Z,77.65
2018-07-24T23:46:07.416Z,76.00
2018-07-24T23:48:36.203Z,76.38
2018-07-24T23:51:04.891Z,76.10
2018-07-24T23:53:33.553Z,76.18
2018-07-24T23:56:02.218Z,77.33
2018-07-24T23:58:31.029Z,75.90
